sensor_id;sensor_type;location;lat;lon;timestamp;P1;durP1;ratioP1;P2;durP2;ratioP2
71838;SDS011;59687;37.520;15.068;2023-01-26T00:01:23;12.73;;;6.87;;
71838;SDS011;59687;37.520;15.068;2023-01-26T00:03:55;12.20;;;7.57;;
71838;SDS011;59687;37.520;15.068;2023-01-26T00:06:23;11.88;;;7.63;;
71838;SDS011;59687;37.520;15.068;2023-01-26T00:08:52;11.77;;;7.05;;
71838;SDS011;59687;37.520;15.068;2023-01-26T00:11:21;13.07;;;7.85;;
71838;SDS011;59687;37.520;15.068;2023-01-26T00:13:56;13.73;;;7.40;;
71838;SDS011;59687;37.520;15.068;2023-01-26T00:16:24;12.43;;;7.60;;
71838;SDS011;59687;37.520;15.068;2023-01-26T00:18:53;12.23;;;7.68;;
71838;SDS011;59687;37.520;15.068;2023-01-26T00:21:22;11.98;;;6.70;;
71838;SDS011;59687;37.520;15.068;2023-01-26T00:23:50;11.20;;;6.72;;
71838;SDS011;59687;37.520;15.068;2023-01-26T00:26:20;9.73;;;5.70;;
71838;SDS011;59687;37.520;15.068;2023-01-26T00:28:49;12.02;;;6.00;;
71838;SDS011;59687;37.520;15.068;2023-01-26T00:31:24;8.80;;;4.95;;
71838;SDS011;59687;37.520;15.068;2023-01-26T00:33:55;9.07;;;4.20;;
71838;SDS011;59687;37.520;15.068;2023-01-26T00:36:25;7.13;;;3.65;;
71838;SDS011;59687;37.520;15.068;2023-01-26T00:38:53;6.37;;;3.40;;
71838;SDS011;59687;37.520;15.068;2023-01-26T00:41:20;5.85;;;3.42;;
71838;SDS011;59687;37.520;15.068;2023-01-26T00:44:08;6.43;;;3.10;;
71838;SDS011;59687;37.520;15.068;2023-01-26T00:46:35;6.30;;;3.72;;
71838;SDS011;59687;37.520;15.068;2023-01-26T00:49:05;6.22;;;2.30;;
71838;SDS011;59687;37.520;15.068;2023-01-26T00:51:32;5.67;;;2.20;;
71838;SDS011;59687;37.520;15.068;2023-01-26T00:53:59;6.22;;;2.40;;
71838;SDS011;59687;37.520;15.068;2023-01-26T00:56:26;5.38;;;2.67;;
71838;SDS011;59687;37.520;15.068;2023-01-26T00:58:53;5.65;;;2.55;;
71838;SDS011;59687;37.520;15.068;2023-01-26T01:01:20;6.30;;;2.40;;
71838;SDS011;59687;37.520;15.068;2023-01-26T01:03:47;5.53;;;2.23;;
71838;SDS011;59687;37.520;15.068;2023-01-26T01:06:17;4.88;;;1.88;;
71838;SDS011;59687;37.520;15.068;2023-01-26T01:08:44;4.68;;;1.10;;
71838;SDS011;59687;37.520;15.068;2023-01-26T01:11:11;3.10;;;1.05;;
71838;SDS011;59687;37.520;15.068;2023-01-26T01:13:39;4.97;;;1.67;;
71838;SDS011;59687;37.520;15.068;2023-01-26T01:16:07;4.77;;;1.80;;
71838;SDS011;59687;37.520;15.068;2023-01-26T01:18:37;5.15;;;1.73;;
71838;SDS011;59687;37.520;15.068;2023-01-26T01:21:06;5.55;;;1.77;;
71838;SDS011;59687;37.520;15.068;2023-01-26T01:23:37;3.33;;;1.20;;
71838;SDS011;59687;37.520;15.068;2023-01-26T01:26:06;3.70;;;1.50;;
71838;SDS011;59687;37.520;15.068;2023-01-26T01:28:34;3.60;;;1.20;;
71838;SDS011;59687;37.520;15.068;2023-01-26T01:31:05;3.80;;;1.60;;
71838;SDS011;59687;37.520;15.068;2023-01-26T01:33:37;3.55;;;1.30;;
71838;SDS011;59687;37.520;15.068;2023-01-26T01:36:06;4.68;;;1.60;;
71838;SDS011;59687;37.520;15.068;2023-01-26T01:38:37;3.70;;;1.30;;
71838;SDS011;59687;37.520;15.068;2023-01-26T01:41:04;4.03;;;1.30;;
71838;SDS011;59687;37.520;15.068;2023-01-26T01:43:34;4.28;;;1.30;;
71838;SDS011;59687;37.520;15.068;2023-01-26T01:46:02;3.50;;;1.30;;
71838;SDS011;59687;37.520;15.068;2023-01-26T01:49:26;4.10;;;1.30;;
71838;SDS011;59687;37.520;15.068;2023-01-26T01:51:47;4.35;;;1.60;;
71838;SDS011;59687;37.520;15.068;2023-01-26T01:54:20;4.10;;;1.87;;
71838;SDS011;59687;37.520;15.068;2023-01-26T01:56:57;4.35;;;1.70;;
71838;SDS011;59687;37.520;15.068;2023-01-26T01:59:27;5.13;;;2.00;;
71838;SDS011;59687;37.520;15.068;2023-01-26T02:01:56;4.78;;;2.00;;
71838;SDS011;59687;37.520;15.068;2023-01-26T02:04:24;6.20;;;2.50;;
71838;SDS011;59687;37.520;15.068;2023-01-26T02:06:53;6.63;;;3.93;;
71838;SDS011;59687;37.520;15.068;2023-01-26T02:09:25;7.32;;;2.63;;
71838;SDS011;59687;37.520;15.068;2023-01-26T02:12:15;4.80;;;2.63;;
71838;SDS011;59687;37.520;15.068;2023-01-26T02:14:46;5.28;;;2.47;;
71838;SDS011;59687;37.520;15.068;2023-01-26T02:17:17;5.80;;;2.70;;
71838;SDS011;59687;37.520;15.068;2023-01-26T02:22:54;5.38;;;2.38;;
71838;SDS011;59687;37.520;15.068;2023-01-26T02:28:20;4.20;;;1.63;;
71838;SDS011;59687;37.520;15.068;2023-01-26T02:30:48;4.82;;;2.13;;
71838;SDS011;59687;37.520;15.068;2023-01-26T02:33:25;4.27;;;1.63;;
71838;SDS011;59687;37.520;15.068;2023-01-26T02:35:58;7.53;;;2.08;;
71838;SDS011;59687;37.520;15.068;2023-01-26T02:38:27;4.43;;;1.92;;
71838;SDS011;59687;37.520;15.068;2023-01-26T02:41:06;4.93;;;2.03;;
71838;SDS011;59687;37.520;15.068;2023-01-26T02:43:36;6.53;;;2.53;;
71838;SDS011;59687;37.520;15.068;2023-01-26T02:46:05;5.60;;;2.50;;
71838;SDS011;59687;37.520;15.068;2023-01-26T02:48:36;6.05;;;2.30;;
71838;SDS011;59687;37.520;15.068;2023-01-26T02:51:22;6.30;;;2.22;;
71838;SDS011;59687;37.520;15.068;2023-01-26T02:53:49;6.32;;;2.30;;
71838;SDS011;59687;37.520;15.068;2023-01-26T02:56:16;4.97;;;1.83;;
71838;SDS011;59687;37.520;15.068;2023-01-26T02:58:43;3.87;;;1.60;;
71838;SDS011;59687;37.520;15.068;2023-01-26T03:01:11;4.45;;;1.90;;
71838;SDS011;59687;37.520;15.068;2023-01-26T03:03:45;4.95;;;1.65;;
71838;SDS011;59687;37.520;15.068;2023-01-26T03:06:13;4.35;;;1.60;;
71838;SDS011;59687;37.520;15.068;2023-01-26T03:08:43;5.53;;;2.13;;
71838;SDS011;59687;37.520;15.068;2023-01-26T03:11:10;5.13;;;1.53;;
71838;SDS011;59687;37.520;15.068;2023-01-26T03:13:38;4.15;;;1.58;;
71838;SDS011;59687;37.520;15.068;2023-01-26T03:16:06;3.90;;;1.60;;
71838;SDS011;59687;37.520;15.068;2023-01-26T03:18:34;4.32;;;1.90;;
71838;SDS011;59687;37.520;15.068;2023-01-26T03:21:20;7.80;;;1.83;;
71838;SDS011;59687;37.520;15.068;2023-01-26T03:24:08;5.60;;;1.70;;
71838;SDS011;59687;37.520;15.068;2023-01-26T03:26:56;4.35;;;1.30;;
71838;SDS011;59687;37.520;15.068;2023-01-26T03:29:42;4.57;;;1.45;;
71838;SDS011;59687;37.520;15.068;2023-01-26T03:32:09;4.28;;;1.60;;
71838;SDS011;59687;37.520;15.068;2023-01-26T03:34:38;5.30;;;2.50;;
71838;SDS011;59687;37.520;15.068;2023-01-26T03:37:07;5.33;;;2.83;;
71838;SDS011;59687;37.520;15.068;2023-01-26T03:39:41;5.65;;;2.95;;
71838;SDS011;59687;37.520;15.068;2023-01-26T03:42:28;5.85;;;3.20;;
71838;SDS011;59687;37.520;15.068;2023-01-26T03:45:13;4.75;;;2.95;;
71838;SDS011;59687;37.520;15.068;2023-01-26T03:48:07;7.15;;;3.13;;
71838;SDS011;59687;37.520;15.068;2023-01-26T03:50:55;4.90;;;2.30;;
71838;SDS011;59687;37.520;15.068;2023-01-26T03:53:43;4.75;;;2.13;;
71838;SDS011;59687;37.520;15.068;2023-01-26T03:56:29;5.13;;;2.90;;
71838;SDS011;59687;37.520;15.068;2023-01-26T03:59:08;5.13;;;3.30;;
71838;SDS011;59687;37.520;15.068;2023-01-26T04:01:42;5.07;;;3.10;;
71838;SDS011;59687;37.520;15.068;2023-01-26T04:04:32;5.40;;;2.40;;
71838;SDS011;59687;37.520;15.068;2023-01-26T04:07:21;5.22;;;2.42;;
71838;SDS011;59687;37.520;15.068;2023-01-26T04:10:09;6.50;;;3.30;;
71838;SDS011;59687;37.520;15.068;2023-01-26T04:12:37;6.35;;;4.10;;
71838;SDS011;59687;37.520;15.068;2023-01-26T04:15:15;9.27;;;6.13;;
71838;SDS011;59687;37.520;15.068;2023-01-26T04:18:04;6.23;;;4.13;;
71838;SDS011;59687;37.520;15.068;2023-01-26T04:20:54;6.43;;;3.83;;
71838;SDS011;59687;37.520;15.068;2023-01-26T04:23:42;7.00;;;3.30;;
71838;SDS011;59687;37.520;15.068;2023-01-26T04:26:09;5.15;;;2.13;;
71838;SDS011;59687;37.520;15.068;2023-01-26T04:28:37;4.50;;;1.85;;
71838;SDS011;59687;37.520;15.068;2023-01-26T04:31:05;4.93;;;2.03;;
71838;SDS011;59687;37.520;15.068;2023-01-26T04:33:34;3.95;;;1.73;;
71838;SDS011;59687;37.520;15.068;2023-01-26T04:36:06;5.20;;;2.00;;
71838;SDS011;59687;37.520;15.068;2023-01-26T04:38:46;5.22;;;2.30;;
71838;SDS011;59687;37.520;15.068;2023-01-26T04:41:16;4.82;;;2.22;;
71838;SDS011;59687;37.520;15.068;2023-01-26T04:43:46;5.37;;;2.50;;
71838;SDS011;59687;37.520;15.068;2023-01-26T04:46:14;5.15;;;2.70;;
71838;SDS011;59687;37.520;15.068;2023-01-26T04:48:42;6.88;;;3.13;;
71838;SDS011;59687;37.520;15.068;2023-01-26T04:51:13;5.55;;;2.70;;
71838;SDS011;59687;37.520;15.068;2023-01-26T04:53:41;5.30;;;2.97;;
71838;SDS011;59687;37.520;15.068;2023-01-26T04:56:18;5.60;;;2.60;;
71838;SDS011;59687;37.520;15.068;2023-01-26T04:59:00;6.03;;;3.00;;
71838;SDS011;59687;37.520;15.068;2023-01-26T05:01:34;6.25;;;3.30;;
71838;SDS011;59687;37.520;15.068;2023-01-26T05:04:05;5.63;;;3.13;;
71838;SDS011;59687;37.520;15.068;2023-01-26T05:06:34;8.70;;;3.47;;
71838;SDS011;59687;37.520;15.068;2023-01-26T05:09:03;5.80;;;2.30;;
71838;SDS011;59687;37.520;15.068;2023-01-26T05:11:32;4.95;;;2.50;;
71838;SDS011;59687;37.520;15.068;2023-01-26T05:14:35;6.50;;;2.60;;
71838;SDS011;59687;37.520;15.068;2023-01-26T05:17:28;5.25;;;2.83;;
71838;SDS011;59687;37.520;15.068;2023-01-26T05:20:08;6.93;;;4.50;;
71838;SDS011;59687;37.520;15.068;2023-01-26T05:22:39;6.77;;;3.70;;
71838;SDS011;59687;37.520;15.068;2023-01-26T05:25:25;5.43;;;2.60;;
71838;SDS011;59687;37.520;15.068;2023-01-26T05:27:59;5.03;;;2.70;;
71838;SDS011;59687;37.520;15.068;2023-01-26T05:30:27;6.68;;;2.47;;
71838;SDS011;59687;37.520;15.068;2023-01-26T05:32:59;5.47;;;2.60;;
71838;SDS011;59687;37.520;15.068;2023-01-26T05:35:27;5.33;;;2.50;;
71838;SDS011;59687;37.520;15.068;2023-01-26T05:37:54;5.40;;;2.20;;
71838;SDS011;59687;37.520;15.068;2023-01-26T05:40:23;6.70;;;2.78;;
71838;SDS011;59687;37.520;15.068;2023-01-26T05:42:52;5.32;;;2.47;;
71838;SDS011;59687;37.520;15.068;2023-01-26T05:45:26;5.15;;;2.42;;
71838;SDS011;59687;37.520;15.068;2023-01-26T05:47:57;6.97;;;3.73;;
71838;SDS011;59687;37.520;15.068;2023-01-26T05:50:24;5.57;;;3.00;;
71838;SDS011;59687;37.520;15.068;2023-01-26T05:53:10;6.07;;;3.53;;
71838;SDS011;59687;37.520;15.068;2023-01-26T05:55:37;6.20;;;2.75;;
71838;SDS011;59687;37.520;15.068;2023-01-26T05:58:04;7.60;;;3.95;;
71838;SDS011;59687;37.520;15.068;2023-01-26T06:00:32;6.20;;;3.13;;
71838;SDS011;59687;37.520;15.068;2023-01-26T06:03:05;5.93;;;2.95;;
71838;SDS011;59687;37.520;15.068;2023-01-26T06:05:33;6.47;;;2.85;;
71838;SDS011;59687;37.520;15.068;2023-01-26T06:08:06;6.38;;;3.45;;
71838;SDS011;59687;37.520;15.068;2023-01-26T06:10:47;6.78;;;4.47;;
71838;SDS011;59687;37.520;15.068;2023-01-26T06:13:24;5.50;;;3.00;;
71838;SDS011;59687;37.520;15.068;2023-01-26T06:16:04;6.25;;;3.72;;
71838;SDS011;59687;37.520;15.068;2023-01-26T06:18:34;6.47;;;3.00;;
71838;SDS011;59687;37.520;15.068;2023-01-26T06:21:02;7.47;;;3.65;;
71838;SDS011;59687;37.520;15.068;2023-01-26T06:23:29;9.25;;;4.10;;
71838;SDS011;59687;37.520;15.068;2023-01-26T06:26:03;6.67;;;3.70;;
71838;SDS011;59687;37.520;15.068;2023-01-26T06:28:32;6.18;;;3.50;;
71838;SDS011;59687;37.520;15.068;2023-01-26T06:31:00;7.78;;;3.60;;
71838;SDS011;59687;37.520;15.068;2023-01-26T06:33:32;7.88;;;3.75;;
71838;SDS011;59687;37.520;15.068;2023-01-26T06:36:02;7.85;;;3.67;;
71838;SDS011;59687;37.520;15.068;2023-01-26T06:38:31;6.97;;;3.33;;
71838;SDS011;59687;37.520;15.068;2023-01-26T06:40:59;6.63;;;4.07;;
71838;SDS011;59687;37.520;15.068;2023-01-26T06:43:30;7.10;;;4.40;;
71838;SDS011;59687;37.520;15.068;2023-01-26T06:46:01;5.50;;;3.20;;
71838;SDS011;59687;37.520;15.068;2023-01-26T06:48:31;6.38;;;2.65;;
71838;SDS011;59687;37.520;15.068;2023-01-26T06:53:47;5.65;;;2.60;;
71838;SDS011;59687;37.520;15.068;2023-01-26T06:56:29;8.57;;;3.50;;
71838;SDS011;59687;37.520;15.068;2023-01-26T06:59:14;5.68;;;3.33;;
71838;SDS011;59687;37.520;15.068;2023-01-26T07:02:18;6.00;;;2.88;;
71838;SDS011;59687;37.520;15.068;2023-01-26T07:04:48;5.20;;;2.83;;
71838;SDS011;59687;37.520;15.068;2023-01-26T07:07:15;6.18;;;3.15;;
71838;SDS011;59687;37.520;15.068;2023-01-26T07:09:43;6.35;;;2.90;;
71838;SDS011;59687;37.520;15.068;2023-01-26T07:12:10;6.10;;;3.10;;
71838;SDS011;59687;37.520;15.068;2023-01-26T07:14:37;6.18;;;3.10;;
71838;SDS011;59687;37.520;15.068;2023-01-26T07:17:04;5.47;;;3.03;;
71838;SDS011;59687;37.520;15.068;2023-01-26T07:19:31;5.55;;;2.65;;
71838;SDS011;59687;37.520;15.068;2023-01-26T07:21:59;7.65;;;3.55;;
71838;SDS011;59687;37.520;15.068;2023-01-26T07:24:27;8.75;;;3.90;;
71838;SDS011;59687;37.520;15.068;2023-01-26T07:26:54;7.97;;;4.03;;
71838;SDS011;59687;37.520;15.068;2023-01-26T07:29:22;6.70;;;3.33;;
71838;SDS011;59687;37.520;15.068;2023-01-26T07:31:49;8.25;;;3.92;;
71838;SDS011;59687;37.520;15.068;2023-01-26T07:34:16;9.32;;;4.78;;
71838;SDS011;59687;37.520;15.068;2023-01-26T07:36:43;7.30;;;3.83;;
71838;SDS011;59687;37.520;15.068;2023-01-26T07:39:11;7.25;;;4.10;;
71838;SDS011;59687;37.520;15.068;2023-01-26T07:41:38;6.67;;;3.80;;
71838;SDS011;59687;37.520;15.068;2023-01-26T07:44:31;5.63;;;2.95;;
71838;SDS011;59687;37.520;15.068;2023-01-26T07:47:03;6.13;;;3.05;;
71838;SDS011;59687;37.520;15.068;2023-01-26T07:49:30;6.72;;;3.58;;
71838;SDS011;59687;37.520;15.068;2023-01-26T07:51:57;7.30;;;3.20;;
71838;SDS011;59687;37.520;15.068;2023-01-26T07:54:24;8.57;;;3.87;;
71838;SDS011;59687;37.520;15.068;2023-01-26T07:56:52;8.73;;;4.25;;
71838;SDS011;59687;37.520;15.068;2023-01-26T07:59:20;6.45;;;2.90;;
71838;SDS011;59687;37.520;15.068;2023-01-26T08:01:48;6.47;;;3.13;;
71838;SDS011;59687;37.520;15.068;2023-01-26T08:04:18;6.90;;;4.20;;
71838;SDS011;59687;37.520;15.068;2023-01-26T08:06:45;5.47;;;3.50;;
71838;SDS011;59687;37.520;15.068;2023-01-26T08:09:12;8.32;;;2.80;;
71838;SDS011;59687;37.520;15.068;2023-01-26T08:11:39;6.35;;;3.08;;
71838;SDS011;59687;37.520;15.068;2023-01-26T08:14:06;8.43;;;5.07;;
71838;SDS011;59687;37.520;15.068;2023-01-26T08:16:38;12.82;;;6.30;;
71838;SDS011;59687;37.520;15.068;2023-01-26T08:19:08;12.47;;;6.80;;
71838;SDS011;59687;37.520;15.068;2023-01-26T08:21:34;13.23;;;7.30;;
71838;SDS011;59687;37.520;15.068;2023-01-26T08:24:01;9.48;;;5.78;;
71838;SDS011;59687;37.520;15.068;2023-01-26T08:26:28;6.78;;;3.63;;
71838;SDS011;59687;37.520;15.068;2023-01-26T08:28:55;5.78;;;2.72;;
71838;SDS011;59687;37.520;15.068;2023-01-26T08:31:22;4.67;;;1.70;;
71838;SDS011;59687;37.520;15.068;2023-01-26T08:33:51;5.47;;;1.80;;
71838;SDS011;59687;37.520;15.068;2023-01-26T08:36:19;7.25;;;2.10;;
71838;SDS011;59687;37.520;15.068;2023-01-26T08:38:49;7.97;;;2.22;;
71838;SDS011;59687;37.520;15.068;2023-01-26T08:41:20;4.55;;;1.98;;
71838;SDS011;59687;37.520;15.068;2023-01-26T08:43:47;7.13;;;2.30;;
71838;SDS011;59687;37.520;15.068;2023-01-26T08:46:16;4.82;;;2.30;;
71838;SDS011;59687;37.520;15.068;2023-01-26T08:48:43;5.63;;;1.70;;
71838;SDS011;59687;37.520;15.068;2023-01-26T08:51:10;7.80;;;2.53;;
71838;SDS011;59687;37.520;15.068;2023-01-26T08:53:37;5.78;;;2.35;;
71838;SDS011;59687;37.520;15.068;2023-01-26T08:56:06;4.70;;;2.00;;
71838;SDS011;59687;37.520;15.068;2023-01-26T08:58:35;6.47;;;2.20;;
71838;SDS011;59687;37.520;15.068;2023-01-26T09:01:03;7.03;;;2.70;;
71838;SDS011;59687;37.520;15.068;2023-01-26T09:03:33;6.30;;;2.60;;
71838;SDS011;59687;37.520;15.068;2023-01-26T09:06:01;7.65;;;2.50;;
71838;SDS011;59687;37.520;15.068;2023-01-26T09:08:30;5.27;;;1.90;;
71838;SDS011;59687;37.520;15.068;2023-01-26T09:11:00;5.72;;;2.40;;
71838;SDS011;59687;37.520;15.068;2023-01-26T09:13:39;4.93;;;2.17;;
71838;SDS011;59687;37.520;15.068;2023-01-26T09:16:11;5.70;;;2.65;;
71838;SDS011;59687;37.520;15.068;2023-01-26T09:18:41;5.15;;;2.10;;
71838;SDS011;59687;37.520;15.068;2023-01-26T09:21:08;5.33;;;2.30;;
71838;SDS011;59687;37.520;15.068;2023-01-26T09:23:35;6.35;;;2.10;;
71838;SDS011;59687;37.520;15.068;2023-01-26T09:26:08;3.65;;;1.40;;
71838;SDS011;59687;37.520;15.068;2023-01-26T09:28:36;4.32;;;1.52;;
71838;SDS011;59687;37.520;15.068;2023-01-26T09:31:04;3.92;;;1.50;;
71838;SDS011;59687;37.520;15.068;2023-01-26T09:33:33;4.07;;;1.37;;
71838;SDS011;59687;37.520;15.068;2023-01-26T09:36:04;3.80;;;1.40;;
71838;SDS011;59687;37.520;15.068;2023-01-26T09:38:33;5.35;;;1.60;;
71838;SDS011;59687;37.520;15.068;2023-01-26T09:41:13;3.72;;;1.20;;
71838;SDS011;59687;37.520;15.068;2023-01-26T09:43:50;7.97;;;1.60;;
71838;SDS011;59687;37.520;15.068;2023-01-26T09:46:21;4.93;;;1.57;;
71838;SDS011;59687;37.520;15.068;2023-01-26T09:52:02;5.10;;;1.48;;
71838;SDS011;59687;37.520;15.068;2023-01-26T09:54:41;4.28;;;1.55;;
71838;SDS011;59687;37.520;15.068;2023-01-26T09:57:13;4.50;;;1.38;;
71838;SDS011;59687;37.520;15.068;2023-01-26T10:00:04;4.80;;;1.20;;
71838;SDS011;59687;37.520;15.068;2023-01-26T10:03:08;4.30;;;1.48;;
71838;SDS011;59687;37.520;15.068;2023-01-26T10:06:11;4.57;;;1.52;;
71838;SDS011;59687;37.520;15.068;2023-01-26T10:09:14;3.97;;;1.45;;
71838;SDS011;59687;37.520;15.068;2023-01-26T10:14:53;3.20;;;1.03;;
71838;SDS011;59687;37.520;15.068;2023-01-26T10:17:38;3.80;;;0.90;;
71838;SDS011;59687;37.520;15.068;2023-01-26T10:22:45;5.22;;;1.10;;
71838;SDS011;59687;37.520;15.068;2023-01-26T10:25:19;3.35;;;0.90;;
71838;SDS011;59687;37.520;15.068;2023-01-26T10:27:59;3.80;;;0.90;;
71838;SDS011;59687;37.520;15.068;2023-01-26T10:30:35;3.83;;;0.90;;
71838;SDS011;59687;37.520;15.068;2023-01-26T10:33:04;3.17;;;0.73;;
71838;SDS011;59687;37.520;15.068;2023-01-26T10:35:42;3.35;;;0.80;;
71838;SDS011;59687;37.520;15.068;2023-01-26T10:38:25;3.80;;;0.90;;
71838;SDS011;59687;37.520;15.068;2023-01-26T10:41:22;3.70;;;1.00;;
71838;SDS011;59687;37.520;15.068;2023-01-26T10:43:53;3.22;;;1.10;;
71838;SDS011;59687;37.520;15.068;2023-01-26T10:46:29;3.65;;;0.90;;
71838;SDS011;59687;37.520;15.068;2023-01-26T10:49:08;4.65;;;0.95;;
71838;SDS011;59687;37.520;15.068;2023-01-26T10:51:45;3.47;;;1.00;;
71838;SDS011;59687;37.520;15.068;2023-01-26T10:54:34;5.47;;;1.10;;
71838;SDS011;59687;37.520;15.068;2023-01-26T10:57:04;4.97;;;0.88;;
71838;SDS011;59687;37.520;15.068;2023-01-26T10:59:42;3.40;;;0.90;;
71838;SDS011;59687;37.520;15.068;2023-01-26T11:07:38;4.70;;;0.97;;
71838;SDS011;59687;37.520;15.068;2023-01-26T11:12:50;4.30;;;1.20;;
71838;SDS011;59687;37.520;15.068;2023-01-26T11:15:32;5.28;;;1.23;;
71838;SDS011;59687;37.520;15.068;2023-01-26T11:21:14;4.43;;;1.30;;
71838;SDS011;59687;37.520;15.068;2023-01-26T11:27:03;3.58;;;1.27;;
71838;SDS011;59687;37.520;15.068;2023-01-26T11:29:40;3.60;;;1.10;;
71838;SDS011;59687;37.520;15.068;2023-01-26T11:32:24;4.90;;;1.30;;
71838;SDS011;59687;37.520;15.068;2023-01-26T11:35:04;4.80;;;1.00;;
71838;SDS011;59687;37.520;15.068;2023-01-26T11:40:27;3.40;;;1.10;;
71838;SDS011;59687;37.520;15.068;2023-01-26T11:48:32;2.83;;;0.87;;
71838;SDS011;59687;37.520;15.068;2023-01-26T11:56:47;3.38;;;0.80;;
71838;SDS011;59687;37.520;15.068;2023-01-26T11:59:26;3.67;;;1.10;;
71838;SDS011;59687;37.520;15.068;2023-01-26T12:04:53;4.20;;;1.30;;
71838;SDS011;59687;37.520;15.068;2023-01-26T12:07:22;3.60;;;1.02;;
71838;SDS011;59687;37.520;15.068;2023-01-26T12:09:55;4.07;;;1.30;;
71838;SDS011;59687;37.520;15.068;2023-01-26T12:12:33;5.43;;;1.15;;
71838;SDS011;59687;37.520;15.068;2023-01-26T12:15:12;3.93;;;1.40;;
71838;SDS011;59687;37.520;15.068;2023-01-26T12:18:03;3.25;;;1.10;;
71838;SDS011;59687;37.520;15.068;2023-01-26T12:20:38;4.18;;;1.58;;
71838;SDS011;59687;37.520;15.068;2023-01-26T12:23:22;3.50;;;1.30;;
71838;SDS011;59687;37.520;15.068;2023-01-26T12:25:59;3.42;;;1.13;;
71838;SDS011;59687;37.520;15.068;2023-01-26T12:34:29;3.17;;;1.13;;
71838;SDS011;59687;37.520;15.068;2023-01-26T12:45:19;5.28;;;1.35;;
71838;SDS011;59687;37.520;15.068;2023-01-26T12:47:52;3.42;;;1.15;;
71838;SDS011;59687;37.520;15.068;2023-01-26T12:52:56;3.78;;;1.30;;
71838;SDS011;59687;37.520;15.068;2023-01-26T12:55:51;5.53;;;1.50;;
71838;SDS011;59687;37.520;15.068;2023-01-26T12:58:32;3.88;;;1.15;;
71838;SDS011;59687;37.520;15.068;2023-01-26T13:01:07;4.35;;;1.48;;
71838;SDS011;59687;37.520;15.068;2023-01-26T13:06:28;3.95;;;1.42;;
71838;SDS011;59687;37.520;15.068;2023-01-26T13:11:47;3.95;;;1.25;;
71838;SDS011;59687;37.520;15.068;2023-01-26T13:16:57;3.70;;;1.30;;
71838;SDS011;59687;37.520;15.068;2023-01-26T13:24:46;3.35;;;1.05;;
71838;SDS011;59687;37.520;15.068;2023-01-26T13:27:33;4.03;;;1.10;;
71838;SDS011;59687;37.520;15.068;2023-01-26T13:30:00;4.35;;;1.35;;
71838;SDS011;59687;37.520;15.068;2023-01-26T13:35:07;5.03;;;1.33;;
71838;SDS011;59687;37.520;15.068;2023-01-26T13:40:30;3.30;;;1.10;;
71838;SDS011;59687;37.520;15.068;2023-01-26T13:46:11;3.70;;;1.17;;
71838;SDS011;59687;37.520;15.068;2023-01-26T13:49:03;4.80;;;1.20;;
71838;SDS011;59687;37.520;15.068;2023-01-26T13:51:32;3.75;;;1.00;;
71838;SDS011;59687;37.520;15.068;2023-01-26T13:54:19;4.80;;;1.20;;
71838;SDS011;59687;37.520;15.068;2023-01-26T13:57:01;3.78;;;1.35;;
71838;SDS011;59687;37.520;15.068;2023-01-26T13:59:28;4.65;;;1.35;;
71838;SDS011;59687;37.520;15.068;2023-01-26T14:01:57;4.10;;;1.10;;
71838;SDS011;59687;37.520;15.068;2023-01-26T14:04:27;3.63;;;1.25;;
71838;SDS011;59687;37.520;15.068;2023-01-26T14:09:27;3.95;;;1.10;;
71838;SDS011;59687;37.520;15.068;2023-01-26T14:11:58;3.20;;;1.20;;
71838;SDS011;59687;37.520;15.068;2023-01-26T14:14:28;3.23;;;1.03;;
71838;SDS011;59687;37.520;15.068;2023-01-26T14:16:58;3.67;;;1.10;;
71838;SDS011;59687;37.520;15.068;2023-01-26T14:19:27;3.80;;;1.10;;
71838;SDS011;59687;37.520;15.068;2023-01-26T14:21:56;5.57;;;1.25;;
71838;SDS011;59687;37.520;15.068;2023-01-26T14:24:32;5.40;;;1.08;;
71838;SDS011;59687;37.520;15.068;2023-01-26T14:27:05;3.50;;;1.20;;
71838;SDS011;59687;37.520;15.068;2023-01-26T14:29:45;3.97;;;1.00;;
71838;SDS011;59687;37.520;15.068;2023-01-26T14:32:16;3.85;;;1.05;;
71838;SDS011;59687;37.520;15.068;2023-01-26T14:34:53;4.18;;;1.40;;
71838;SDS011;59687;37.520;15.068;2023-01-26T14:37:22;4.28;;;1.10;;
71838;SDS011;59687;37.520;15.068;2023-01-26T14:40:08;4.43;;;1.20;;
71838;SDS011;59687;37.520;15.068;2023-01-26T14:42:46;4.18;;;1.20;;
71838;SDS011;59687;37.520;15.068;2023-01-26T14:45:19;3.30;;;1.00;;
71838;SDS011;59687;37.520;15.068;2023-01-26T14:48:01;16.38;;;7.47;;
71838;SDS011;59687;37.520;15.068;2023-01-26T14:50:32;14.23;;;7.15;;
71838;SDS011;59687;37.520;15.068;2023-01-26T14:53:00;4.83;;;1.60;;
71838;SDS011;59687;37.520;15.068;2023-01-26T14:55:33;4.40;;;1.45;;
71838;SDS011;59687;37.520;15.068;2023-01-26T14:58:02;3.92;;;1.38;;
71838;SDS011;59687;37.520;15.068;2023-01-26T15:00:40;3.80;;;1.30;;
71838;SDS011;59687;37.520;15.068;2023-01-26T15:03:11;4.10;;;1.70;;
71838;SDS011;59687;37.520;15.068;2023-01-26T15:05:47;4.43;;;1.90;;
71838;SDS011;59687;37.520;15.068;2023-01-26T15:08:19;3.97;;;1.77;;
71838;SDS011;59687;37.520;15.068;2023-01-26T15:10:54;4.53;;;1.33;;
71838;SDS011;59687;37.520;15.068;2023-01-26T15:13:45;4.57;;;1.40;;
71838;SDS011;59687;37.520;15.068;2023-01-26T15:18:43;4.80;;;1.30;;
71838;SDS011;59687;37.520;15.068;2023-01-26T15:21:16;3.70;;;1.35;;
71838;SDS011;59687;37.520;15.068;2023-01-26T15:23:49;3.30;;;1.02;;
71838;SDS011;59687;37.520;15.068;2023-01-26T15:26:24;4.10;;;1.40;;
71838;SDS011;59687;37.520;15.068;2023-01-26T15:28:54;4.85;;;1.30;;
71838;SDS011;59687;37.520;15.068;2023-01-26T15:31:33;4.97;;;1.80;;
71838;SDS011;59687;37.520;15.068;2023-01-26T15:34:05;4.55;;;1.90;;
71838;SDS011;59687;37.520;15.068;2023-01-26T15:36:58;5.25;;;2.00;;
71838;SDS011;59687;37.520;15.068;2023-01-26T15:39:25;5.28;;;2.28;;
71838;SDS011;59687;37.520;15.068;2023-01-26T15:44:52;5.00;;;1.70;;
71838;SDS011;59687;37.520;15.068;2023-01-26T15:47:19;4.20;;;1.88;;
71838;SDS011;59687;37.520;15.068;2023-01-26T15:49:46;4.40;;;2.40;;
71838;SDS011;59687;37.520;15.068;2023-01-26T15:52:17;3.90;;;1.40;;
71838;SDS011;59687;37.520;15.068;2023-01-26T15:54:48;4.50;;;1.85;;
71838;SDS011;59687;37.520;15.068;2023-01-26T15:57:17;6.33;;;2.00;;
71838;SDS011;59687;37.520;15.068;2023-01-26T15:59:48;4.25;;;1.77;;
71838;SDS011;59687;37.520;15.068;2023-01-26T16:02:17;5.07;;;3.40;;
71838;SDS011;59687;37.520;15.068;2023-01-26T16:04:45;5.93;;;2.58;;
71838;SDS011;59687;37.520;15.068;2023-01-26T16:07:13;7.20;;;2.50;;
71838;SDS011;59687;37.520;15.068;2023-01-26T16:09:42;5.10;;;3.00;;
71838;SDS011;59687;37.520;15.068;2023-01-26T16:12:11;7.05;;;3.00;;
71838;SDS011;59687;37.520;15.068;2023-01-26T16:14:55;6.30;;;3.10;;
71838;SDS011;59687;37.520;15.068;2023-01-26T16:17:22;6.75;;;3.38;;
71838;SDS011;59687;37.520;15.068;2023-01-26T16:19:49;5.95;;;2.78;;
71838;SDS011;59687;37.520;15.068;2023-01-26T16:22:16;4.70;;;2.57;;
71838;SDS011;59687;37.520;15.068;2023-01-26T16:24:45;6.35;;;2.78;;
71838;SDS011;59687;37.520;15.068;2023-01-26T16:27:12;9.27;;;2.05;;
71838;SDS011;59687;37.520;15.068;2023-01-26T16:29:39;4.13;;;1.70;;
71838;SDS011;59687;37.520;15.068;2023-01-26T16:32:18;5.57;;;2.40;;
71838;SDS011;59687;37.520;15.068;2023-01-26T16:34:54;4.13;;;1.17;;
71838;SDS011;59687;37.520;15.068;2023-01-26T16:37:21;5.75;;;1.90;;
71838;SDS011;59687;37.520;15.068;2023-01-26T16:39:48;6.55;;;2.53;;
71838;SDS011;59687;37.520;15.068;2023-01-26T16:42:16;4.93;;;1.73;;
71838;SDS011;59687;37.520;15.068;2023-01-26T16:44:45;6.72;;;2.38;;